sensor_id;sensor_type;location;lat;lon;timestamp;P1;durP1;ratioP1;P2;durP2;ratioP2
15502;SDS011;7853;52.186;5.948;2023-05-07T00:03:17;5.29;;;4.06;;
15502;SDS011;7853;52.186;5.948;2023-05-07T00:03:17;5.39;;;4.18;;
15502;SDS011;7853;52.186;5.948;2023-05-07T00:04:13;5.70;;;4.10;;
15502;SDS011;7853;52.186;5.948;2023-05-07T00:05:00;4.94;;;3.87;;
15502;SDS011;7853;52.186;5.948;2023-05-07T00:05:46;6.79;;;4.15;;
15502;SDS011;7853;52.186;5.948;2023-05-07T00:06:39;5.53;;;3.88;;
15502;SDS011;7853;52.186;5.948;2023-05-07T00:07:36;4.78;;;3.87;;
15502;SDS011;7853;52.186;5.948;2023-05-07T00:08:34;5.58;;;4.32;;
15502;SDS011;7853;52.186;5.948;2023-05-07T00:09:33;4.63;;;4.05;;
15502;SDS011;7853;52.186;5.948;2023-05-07T00:10:33;4.88;;;3.97;;
15502;SDS011;7853;52.186;5.948;2023-05-07T00:11:33;4.95;;;4.14;;
15502;SDS011;7853;52.186;5.948;2023-05-07T00:12:33;5.26;;;4.32;;
15502;SDS011;7853;52.186;5.948;2023-05-07T00:13:33;4.77;;;4.02;;
15502;SDS011;7853;52.186;5.948;2023-05-07T00:14:33;5.35;;;3.95;;
15502;SDS011;7853;52.186;5.948;2023-05-07T00:15:33;4.79;;;3.90;;
15502;SDS011;7853;52.186;5.948;2023-05-07T00:16:33;4.71;;;3.83;;
15502;SDS011;7853;52.186;5.948;2023-05-07T00:17:33;5.14;;;4.05;;
15502;SDS011;7853;52.186;5.948;2023-05-07T00:18:33;4.70;;;4.06;;
15502;SDS011;7853;52.186;5.948;2023-05-07T00:19:33;5.62;;;4.59;;
15502;SDS011;7853;52.186;5.948;2023-05-07T00:20:33;5.96;;;4.63;;
15502;SDS011;7853;52.186;5.948;2023-05-07T00:21:33;5.53;;;4.63;;
15502;SDS011;7853;52.186;5.948;2023-05-07T00:22:36;5.34;;;4.73;;
15502;SDS011;7853;52.186;5.948;2023-05-07T00:23:33;5.98;;;4.70;;
15502;SDS011;7853;52.186;5.948;2023-05-07T00:24:33;6.51;;;4.87;;
15502;SDS011;7853;52.186;5.948;2023-05-07T00:25:33;5.55;;;4.64;;
15502;SDS011;7853;52.186;5.948;2023-05-07T00:26:33;5.26;;;4.52;;
15502;SDS011;7853;52.186;5.948;2023-05-07T00:27:33;6.41;;;4.94;;
15502;SDS011;7853;52.186;5.948;2023-05-07T00:28:33;5.84;;;4.96;;
15502;SDS011;7853;52.186;5.948;2023-05-07T00:29:33;6.42;;;4.74;;
15502;SDS011;7853;52.186;5.948;2023-05-07T00:30:34;5.72;;;4.61;;
15502;SDS011;7853;52.186;5.948;2023-05-07T00:31:34;5.29;;;4.75;;
15502;SDS011;7853;52.186;5.948;2023-05-07T00:32:34;6.27;;;5.24;;
15502;SDS011;7853;52.186;5.948;2023-05-07T00:33:34;5.82;;;4.67;;
15502;SDS011;7853;52.186;5.948;2023-05-07T00:34:34;5.83;;;4.98;;
15502;SDS011;7853;52.186;5.948;2023-05-07T00:35:34;6.79;;;5.20;;
15502;SDS011;7853;52.186;5.948;2023-05-07T00:36:34;5.59;;;4.78;;
15502;SDS011;7853;52.186;5.948;2023-05-07T00:37:34;5.13;;;4.60;;
15502;SDS011;7853;52.186;5.948;2023-05-07T00:38:34;6.54;;;4.90;;
15502;SDS011;7853;52.186;5.948;2023-05-07T00:39:34;6.27;;;4.96;;
15502;SDS011;7853;52.186;5.948;2023-05-07T00:40:34;6.14;;;5.18;;
15502;SDS011;7853;52.186;5.948;2023-05-07T00:41:34;5.70;;;5.17;;
15502;SDS011;7853;52.186;5.948;2023-05-07T00:42:34;5.97;;;5.16;;
15502;SDS011;7853;52.186;5.948;2023-05-07T00:43:34;6.59;;;5.07;;
15502;SDS011;7853;52.186;5.948;2023-05-07T00:44:34;7.11;;;5.08;;
15502;SDS011;7853;52.186;5.948;2023-05-07T00:45:34;5.51;;;4.89;;
15502;SDS011;7853;52.186;5.948;2023-05-07T00:46:34;6.00;;;5.35;;
15502;SDS011;7853;52.186;5.948;2023-05-07T00:47:34;6.00;;;4.81;;
15502;SDS011;7853;52.186;5.948;2023-05-07T00:48:34;6.31;;;4.84;;
15502;SDS011;7853;52.186;5.948;2023-05-07T00:49:35;6.51;;;5.40;;
15502;SDS011;7853;52.186;5.948;2023-05-07T00:50:34;6.02;;;5.18;;
15502;SDS011;7853;52.186;5.948;2023-05-07T00:51:34;6.11;;;5.12;;
15502;SDS011;7853;52.186;5.948;2023-05-07T00:52:34;5.55;;;5.03;;
15502;SDS011;7853;52.186;5.948;2023-05-07T00:53:34;5.85;;;5.11;;
15502;SDS011;7853;52.186;5.948;2023-05-07T00:54:34;5.72;;;5.11;;
15502;SDS011;7853;52.186;5.948;2023-05-07T00:55:34;6.58;;;4.91;;
15502;SDS011;7853;52.186;5.948;2023-05-07T00:56:34;6.04;;;4.79;;
15502;SDS011;7853;52.186;5.948;2023-05-07T00:57:35;6.38;;;4.73;;
15502;SDS011;7853;52.186;5.948;2023-05-07T00:58:34;6.48;;;4.79;;
15502;SDS011;7853;52.186;5.948;2023-05-07T00:59:34;5.66;;;4.68;;
15502;SDS011;7853;52.186;5.948;2023-05-07T01:00:34;5.86;;;5.14;;
15502;SDS011;7853;52.186;5.948;2023-05-07T01:01:34;6.35;;;5.06;;
15502;SDS011;7853;52.186;5.948;2023-05-07T01:02:34;6.72;;;5.32;;
15502;SDS011;7853;52.186;5.948;2023-05-07T01:03:34;6.49;;;5.60;;
15502;SDS011;7853;52.186;5.948;2023-05-07T01:04:34;5.99;;;5.17;;
15502;SDS011;7853;52.186;5.948;2023-05-07T01:05:34;5.95;;;5.00;;
15502;SDS011;7853;52.186;5.948;2023-05-07T01:06:34;6.16;;;5.17;;
15502;SDS011;7853;52.186;5.948;2023-05-07T01:07:34;6.39;;;5.48;;
15502;SDS011;7853;52.186;5.948;2023-05-07T01:08:34;6.17;;;5.43;;
15502;SDS011;7853;52.186;5.948;2023-05-07T01:09:34;6.35;;;5.40;;
15502;SDS011;7853;52.186;5.948;2023-05-07T01:10:34;6.99;;;5.23;;
15502;SDS011;7853;52.186;5.948;2023-05-07T01:11:34;5.99;;;5.27;;
15502;SDS011;7853;52.186;5.948;2023-05-07T01:12:34;6.03;;;5.41;;
15502;SDS011;7853;52.186;5.948;2023-05-07T01:13:34;6.53;;;5.88;;
15502;SDS011;7853;52.186;5.948;2023-05-07T01:14:34;6.59;;;5.91;;
15502;SDS011;7853;52.186;5.948;2023-05-07T01:15:34;6.69;;;5.60;;
15502;SDS011;7853;52.186;5.948;2023-05-07T01:16:36;7.02;;;5.58;;
15502;SDS011;7853;52.186;5.948;2023-05-07T01:17:34;6.38;;;5.53;;
15502;SDS011;7853;52.186;5.948;2023-05-07T01:18:34;6.30;;;5.53;;
15502;SDS011;7853;52.186;5.948;2023-05-07T01:19:34;6.31;;;5.51;;
15502;SDS011;7853;52.186;5.948;2023-05-07T01:20:34;7.06;;;5.74;;
15502;SDS011;7853;52.186;5.948;2023-05-07T01:21:34;7.05;;;5.35;;
15502;SDS011;7853;52.186;5.948;2023-05-07T01:22:35;6.35;;;5.31;;
15502;SDS011;7853;52.186;5.948;2023-05-07T01:23:34;6.63;;;5.54;;
15502;SDS011;7853;52.186;5.948;2023-05-07T01:24:34;6.30;;;5.11;;
15502;SDS011;7853;52.186;5.948;2023-05-07T01:25:34;5.72;;;5.20;;
15502;SDS011;7853;52.186;5.948;2023-05-07T01:26:34;6.35;;;5.67;;
15502;SDS011;7853;52.186;5.948;2023-05-07T01:27:35;6.13;;;5.53;;
15502;SDS011;7853;52.186;5.948;2023-05-07T01:28:34;6.82;;;5.34;;
15502;SDS011;7853;52.186;5.948;2023-05-07T01:29:34;5.97;;;5.20;;
15502;SDS011;7853;52.186;5.948;2023-05-07T01:30:34;6.45;;;5.48;;
15502;SDS011;7853;52.186;5.948;2023-05-07T01:31:34;6.53;;;5.42;;
15502;SDS011;7853;52.186;5.948;2023-05-07T01:32:38;6.58;;;5.45;;
15502;SDS011;7853;52.186;5.948;2023-05-07T01:33:34;6.44;;;5.66;;
15502;SDS011;7853;52.186;5.948;2023-05-07T01:34:34;6.28;;;5.52;;
15502;SDS011;7853;52.186;5.948;2023-05-07T01:35:36;7.57;;;6.13;;
15502;SDS011;7853;52.186;5.948;2023-05-07T01:36:34;6.27;;;5.67;;
15502;SDS011;7853;52.186;5.948;2023-05-07T01:37:34;6.46;;;5.80;;
15502;SDS011;7853;52.186;5.948;2023-05-07T01:38:35;7.03;;;6.01;;
15502;SDS011;7853;52.186;5.948;2023-05-07T01:39:35;8.28;;;6.01;;
15502;SDS011;7853;52.186;5.948;2023-05-07T01:40:34;6.54;;;5.88;;
15502;SDS011;7853;52.186;5.948;2023-05-07T01:41:35;6.74;;;5.80;;
15502;SDS011;7853;52.186;5.948;2023-05-07T01:42:34;6.66;;;5.77;;
15502;SDS011;7853;52.186;5.948;2023-05-07T01:43:34;6.41;;;5.81;;
15502;SDS011;7853;52.186;5.948;2023-05-07T01:44:34;6.42;;;5.79;;
15502;SDS011;7853;52.186;5.948;2023-05-07T01:45:34;6.63;;;5.61;;
15502;SDS011;7853;52.186;5.948;2023-05-07T01:46:35;6.69;;;5.97;;
15502;SDS011;7853;52.186;5.948;2023-05-07T01:47:35;6.80;;;6.16;;
15502;SDS011;7853;52.186;5.948;2023-05-07T01:48:34;6.09;;;5.50;;
15502;SDS011;7853;52.186;5.948;2023-05-07T01:49:35;6.14;;;5.53;;
15502;SDS011;7853;52.186;5.948;2023-05-07T01:50:35;6.14;;;5.48;;
15502;SDS011;7853;52.186;5.948;2023-05-07T01:51:34;6.09;;;5.50;;
15502;SDS011;7853;52.186;5.948;2023-05-07T01:52:35;6.20;;;5.53;;
15502;SDS011;7853;52.186;5.948;2023-05-07T01:53:35;6.28;;;5.64;;
15502;SDS011;7853;52.186;5.948;2023-05-07T01:54:35;7.43;;;5.59;;
15502;SDS011;7853;52.186;5.948;2023-05-07T01:55:34;6.68;;;5.59;;
15502;SDS011;7853;52.186;5.948;2023-05-07T01:56:35;7.27;;;5.69;;
15502;SDS011;7853;52.186;5.948;2023-05-07T01:57:34;6.31;;;5.23;;
15502;SDS011;7853;52.186;5.948;2023-05-07T01:58:35;7.28;;;5.37;;
15502;SDS011;7853;52.186;5.948;2023-05-07T01:59:34;6.67;;;5.64;;
15502;SDS011;7853;52.186;5.948;2023-05-07T02:00:35;6.39;;;5.35;;
15502;SDS011;7853;52.186;5.948;2023-05-07T02:01:34;5.60;;;5.06;;
15502;SDS011;7853;52.186;5.948;2023-05-07T02:02:35;6.68;;;5.43;;
15502;SDS011;7853;52.186;5.948;2023-05-07T02:03:35;6.10;;;5.37;;
15502;SDS011;7853;52.186;5.948;2023-05-07T02:04:34;6.22;;;5.24;;
15502;SDS011;7853;52.186;5.948;2023-05-07T02:05:35;6.00;;;5.30;;
15502;SDS011;7853;52.186;5.948;2023-05-07T02:06:35;6.90;;;5.35;;
15502;SDS011;7853;52.186;5.948;2023-05-07T02:07:34;6.12;;;5.05;;
15502;SDS011;7853;52.186;5.948;2023-05-07T02:08:35;5.86;;;5.22;;
15502;SDS011;7853;52.186;5.948;2023-05-07T02:09:34;5.85;;;5.27;;
15502;SDS011;7853;52.186;5.948;2023-05-07T02:10:35;5.89;;;5.28;;
15502;SDS011;7853;52.186;5.948;2023-05-07T02:11:34;7.18;;;5.65;;
15502;SDS011;7853;52.186;5.948;2023-05-07T02:12:34;6.48;;;5.51;;
15502;SDS011;7853;52.186;5.948;2023-05-07T02:13:35;6.33;;;5.53;;
15502;SDS011;7853;52.186;5.948;2023-05-07T02:14:35;6.20;;;5.58;;
15502;SDS011;7853;52.186;5.948;2023-05-07T02:15:34;7.36;;;5.71;;
15502;SDS011;7853;52.186;5.948;2023-05-07T02:16:35;6.82;;;6.06;;
15502;SDS011;7853;52.186;5.948;2023-05-07T02:17:35;8.34;;;6.63;;
15502;SDS011;7853;52.186;5.948;2023-05-07T02:18:35;6.75;;;5.93;;
15502;SDS011;7853;52.186;5.948;2023-05-07T02:19:34;7.03;;;6.14;;
15502;SDS011;7853;52.186;5.948;2023-05-07T02:20:35;7.13;;;6.06;;
15502;SDS011;7853;52.186;5.948;2023-05-07T02:21:34;6.89;;;6.23;;
15502;SDS011;7853;52.186;5.948;2023-05-07T02:22:34;6.46;;;5.81;;
15502;SDS011;7853;52.186;5.948;2023-05-07T02:23:35;6.94;;;6.06;;
15502;SDS011;7853;52.186;5.948;2023-05-07T02:24:35;6.78;;;5.83;;
15502;SDS011;7853;52.186;5.948;2023-05-07T02:25:35;7.44;;;6.24;;
15502;SDS011;7853;52.186;5.948;2023-05-07T02:26:35;7.35;;;6.04;;
15502;SDS011;7853;52.186;5.948;2023-05-07T02:27:34;6.78;;;5.66;;
15502;SDS011;7853;52.186;5.948;2023-05-07T02:28:34;6.45;;;5.70;;
15502;SDS011;7853;52.186;5.948;2023-05-07T02:29:35;6.75;;;5.90;;
15502;SDS011;7853;52.186;5.948;2023-05-07T02:30:35;7.30;;;5.91;;
15502;SDS011;7853;52.186;5.948;2023-05-07T02:31:35;6.14;;;5.56;;
15502;SDS011;7853;52.186;5.948;2023-05-07T02:32:34;6.71;;;5.79;;
15502;SDS011;7853;52.186;5.948;2023-05-07T02:33:35;6.37;;;5.70;;
15502;SDS011;7853;52.186;5.948;2023-05-07T02:34:35;7.55;;;5.63;;
15502;SDS011;7853;52.186;5.948;2023-05-07T02:35:35;6.54;;;5.49;;
15502;SDS011;7853;52.186;5.948;2023-05-07T02:36:34;7.14;;;5.87;;
15502;SDS011;7853;52.186;5.948;2023-05-07T02:37:35;7.14;;;6.12;;
15502;SDS011;7853;52.186;5.948;2023-05-07T02:38:35;6.47;;;5.84;;
15502;SDS011;7853;52.186;5.948;2023-05-07T02:39:35;6.45;;;5.84;;
15502;SDS011;7853;52.186;5.948;2023-05-07T02:40:35;6.20;;;5.61;;
15502;SDS011;7853;52.186;5.948;2023-05-07T02:41:35;6.09;;;5.51;;
15502;SDS011;7853;52.186;5.948;2023-05-07T02:42:34;6.28;;;5.66;;
15502;SDS011;7853;52.186;5.948;2023-05-07T02:43:35;5.88;;;5.31;;
15502;SDS011;7853;52.186;5.948;2023-05-07T02:44:35;6.30;;;5.62;;
15502;SDS011;7853;52.186;5.948;2023-05-07T02:45:35;6.31;;;5.60;;
15502;SDS011;7853;52.186;5.948;2023-05-07T02:46:34;6.88;;;5.82;;
15502;SDS011;7853;52.186;5.948;2023-05-07T02:47:35;7.22;;;5.76;;
15502;SDS011;7853;52.186;5.948;2023-05-07T02:48:35;7.55;;;6.10;;
15502;SDS011;7853;52.186;5.948;2023-05-07T02:49:35;7.09;;;5.78;;
15502;SDS011;7853;52.186;5.948;2023-05-07T02:50:35;7.67;;;5.71;;
15502;SDS011;7853;52.186;5.948;2023-05-07T02:51:35;6.54;;;5.77;;
15502;SDS011;7853;52.186;5.948;2023-05-07T02:52:34;6.52;;;5.76;;
15502;SDS011;7853;52.186;5.948;2023-05-07T02:53:34;6.36;;;5.77;;
15502;SDS011;7853;52.186;5.948;2023-05-07T02:54:35;6.68;;;6.08;;
15502;SDS011;7853;52.186;5.948;2023-05-07T02:55:34;7.27;;;6.56;;
15502;SDS011;7853;52.186;5.948;2023-05-07T02:56:34;7.00;;;6.01;;
15502;SDS011;7853;52.186;5.948;2023-05-07T02:57:35;7.29;;;6.09;;
15502;SDS011;7853;52.186;5.948;2023-05-07T02:58:35;7.05;;;5.87;;
15502;SDS011;7853;52.186;5.948;2023-05-07T02:59:35;6.52;;;5.91;;
15502;SDS011;7853;52.186;5.948;2023-05-07T03:00:35;6.90;;;5.96;;
15502;SDS011;7853;52.186;5.948;2023-05-07T03:01:35;6.88;;;6.23;;
15502;SDS011;7853;52.186;5.948;2023-05-07T03:02:35;7.30;;;6.37;;
15502;SDS011;7853;52.186;5.948;2023-05-07T03:03:35;7.39;;;6.16;;
15502;SDS011;7853;52.186;5.948;2023-05-07T03:04:35;7.59;;;6.27;;
15502;SDS011;7853;52.186;5.948;2023-05-07T03:05:35;8.42;;;6.42;;
15502;SDS011;7853;52.186;5.948;2023-05-07T03:06:35;7.20;;;6.50;;
15502;SDS011;7853;52.186;5.948;2023-05-07T03:07:35;7.94;;;6.56;;
15502;SDS011;7853;52.186;5.948;2023-05-07T03:08:35;8.36;;;6.58;;
15502;SDS011;7853;52.186;5.948;2023-05-07T03:09:35;6.95;;;6.17;;
15502;SDS011;7853;52.186;5.948;2023-05-07T03:10:35;7.72;;;6.67;;
15502;SDS011;7853;52.186;5.948;2023-05-07T03:11:34;7.89;;;6.76;;
15502;SDS011;7853;52.186;5.948;2023-05-07T03:12:35;8.05;;;6.82;;
15502;SDS011;7853;52.186;5.948;2023-05-07T03:13:35;8.17;;;7.13;;
15502;SDS011;7853;52.186;5.948;2023-05-07T03:14:34;7.91;;;7.07;;
15502;SDS011;7853;52.186;5.948;2023-05-07T03:15:35;7.93;;;6.84;;
15502;SDS011;7853;52.186;5.948;2023-05-07T03:16:35;7.91;;;6.92;;
15502;SDS011;7853;52.186;5.948;2023-05-07T03:17:34;8.66;;;7.32;;
15502;SDS011;7853;52.186;5.948;2023-05-07T03:18:35;9.52;;;7.44;;
15502;SDS011;7853;52.186;5.948;2023-05-07T03:19:34;9.45;;;7.40;;
15502;SDS011;7853;52.186;5.948;2023-05-07T03:20:34;8.59;;;7.65;;
15502;SDS011;7853;52.186;5.948;2023-05-07T03:21:34;8.40;;;7.44;;
15502;SDS011;7853;52.186;5.948;2023-05-07T03:22:35;9.05;;;7.37;;
15502;SDS011;7853;52.186;5.948;2023-05-07T03:23:34;9.01;;;7.39;;
15502;SDS011;7853;52.186;5.948;2023-05-07T03:24:35;8.76;;;7.67;;
15502;SDS011;7853;52.186;5.948;2023-05-07T03:25:34;8.92;;;7.43;;
15502;SDS011;7853;52.186;5.948;2023-05-07T03:26:34;8.49;;;7.33;;
15502;SDS011;7853;52.186;5.948;2023-05-07T03:27:34;8.51;;;7.61;;
15502;SDS011;7853;52.186;5.948;2023-05-07T03:28:35;8.75;;;7.71;;
15502;SDS011;7853;52.186;5.948;2023-05-07T03:29:35;9.76;;;7.90;;
15502;SDS011;7853;52.186;5.948;2023-05-07T03:30:34;9.32;;;8.09;;
15502;SDS011;7853;52.186;5.948;2023-05-07T03:31:34;8.77;;;7.59;;
15502;SDS011;7853;52.186;5.948;2023-05-07T03:32:35;9.54;;;7.92;;
15502;SDS011;7853;52.186;5.948;2023-05-07T03:33:35;9.75;;;8.22;;
15502;SDS011;7853;52.186;5.948;2023-05-07T03:34:34;8.67;;;7.53;;
15502;SDS011;7853;52.186;5.948;2023-05-07T03:35:34;8.86;;;7.79;;
15502;SDS011;7853;52.186;5.948;2023-05-07T03:36:34;9.47;;;8.36;;
15502;SDS011;7853;52.186;5.948;2023-05-07T03:37:35;9.46;;;8.43;;
15502;SDS011;7853;52.186;5.948;2023-05-07T03:38:35;9.51;;;8.12;;
15502;SDS011;7853;52.186;5.948;2023-05-07T03:39:34;10.02;;;8.64;;
15502;SDS011;7853;52.186;5.948;2023-05-07T03:40:34;9.88;;;8.29;;
15502;SDS011;7853;52.186;5.948;2023-05-07T03:41:35;9.87;;;7.94;;
15502;SDS011;7853;52.186;5.948;2023-05-07T03:42:35;9.30;;;8.02;;
15502;SDS011;7853;52.186;5.948;2023-05-07T03:43:35;9.23;;;7.90;;
15502;SDS011;7853;52.186;5.948;2023-05-07T03:44:35;9.49;;;8.52;;
15502;SDS011;7853;52.186;5.948;2023-05-07T03:45:35;9.92;;;8.49;;
15502;SDS011;7853;52.186;5.948;2023-05-07T03:46:37;10.20;;;8.86;;
15502;SDS011;7853;52.186;5.948;2023-05-07T03:47:33;10.18;;;8.82;;
15502;SDS011;7853;52.186;5.948;2023-05-07T03:48:34;10.09;;;8.72;;
15502;SDS011;7853;52.186;5.948;2023-05-07T03:49:34;9.50;;;8.03;;
15502;SDS011;7853;52.186;5.948;2023-05-07T03:50:34;10.28;;;8.63;;
15502;SDS011;7853;52.186;5.948;2023-05-07T03:51:34;10.26;;;8.35;;
15502;SDS011;7853;52.186;5.948;2023-05-07T03:52:34;9.95;;;8.31;;
15502;SDS011;7853;52.186;5.948;2023-05-07T03:53:35;10.24;;;8.73;;
15502;SDS011;7853;52.186;5.948;2023-05-07T03:54:34;10.80;;;9.23;;
15502;SDS011;7853;52.186;5.948;2023-05-07T03:55:35;10.42;;;8.89;;
15502;SDS011;7853;52.186;5.948;2023-05-07T03:56:34;9.66;;;8.54;;
15502;SDS011;7853;52.186;5.948;2023-05-07T03:57:35;10.90;;;8.61;;
15502;SDS011;7853;52.186;5.948;2023-05-07T03:58:35;9.44;;;8.46;;
15502;SDS011;7853;52.186;5.948;2023-05-07T03:59:34;10.01;;;8.87;;
15502;SDS011;7853;52.186;5.948;2023-05-07T04:00:35;9.83;;;8.77;;
15502;SDS011;7853;52.186;5.948;2023-05-07T04:01:35;10.20;;;8.91;;
15502;SDS011;7853;52.186;5.948;2023-05-07T04:02:35;10.87;;;9.09;;
15502;SDS011;7853;52.186;5.948;2023-05-07T04:03:35;10.07;;;8.64;;
15502;SDS011;7853;52.186;5.948;2023-05-07T04:04:35;10.84;;;8.73;;
15502;SDS011;7853;52.186;5.948;2023-05-07T04:05:34;10.12;;;8.71;;
15502;SDS011;7853;52.186;5.948;2023-05-07T04:06:35;9.83;;;8.43;;
15502;SDS011;7853;52.186;5.948;2023-05-07T04:07:34;13.22;;;8.94;;
15502;SDS011;7853;52.186;5.948;2023-05-07T04:08:35;9.96;;;8.53;;
15502;SDS011;7853;52.186;5.948;2023-05-07T04:09:35;10.94;;;8.72;;
15502;SDS011;7853;52.186;5.948;2023-05-07T04:10:34;10.51;;;8.86;;
15502;SDS011;7853;52.186;5.948;2023-05-07T04:11:35;10.67;;;8.77;;
15502;SDS011;7853;52.186;5.948;2023-05-07T04:12:34;9.13;;;8.19;;
15502;SDS011;7853;52.186;5.948;2023-05-07T04:13:34;10.09;;;8.41;;
15502;SDS011;7853;52.186;5.948;2023-05-07T04:14:35;10.21;;;8.51;;
15502;SDS011;7853;52.186;5.948;2023-05-07T04:15:35;10.53;;;8.70;;
15502;SDS011;7853;52.186;5.948;2023-05-07T04:16:35;9.62;;;8.39;;
15502;SDS011;7853;52.186;5.948;2023-05-07T04:17:35;9.68;;;8.71;;
15502;SDS011;7853;52.186;5.948;2023-05-07T04:18:35;9.97;;;8.87;;
15502;SDS011;7853;52.186;5.948;2023-05-07T04:19:35;10.22;;;8.90;;
15502;SDS011;7853;52.186;5.948;2023-05-07T04:20:35;10.25;;;8.81;;
15502;SDS011;7853;52.186;5.948;2023-05-07T04:21:34;10.31;;;8.98;;
15502;SDS011;7853;52.186;5.948;2023-05-07T04:22:34;9.58;;;8.31;;
15502;SDS011;7853;52.186;5.948;2023-05-07T04:23:35;10.63;;;8.82;;
15502;SDS011;7853;52.186;5.948;2023-05-07T04:24:34;9.70;;;8.65;;
15502;SDS011;7853;52.186;5.948;2023-05-07T04:25:35;10.11;;;8.63;;
15502;SDS011;7853;52.186;5.948;2023-05-07T04:26:35;10.29;;;8.94;;
15502;SDS011;7853;52.186;5.948;2023-05-07T04:27:35;10.40;;;8.80;;
15502;SDS011;7853;52.186;5.948;2023-05-07T04:28:35;10.89;;;9.24;;
15502;SDS011;7853;52.186;5.948;2023-05-07T04:29:34;11.66;;;9.01;;
15502;SDS011;7853;52.186;5.948;2023-05-07T04:30:34;11.71;;;9.06;;
15502;SDS011;7853;52.186;5.948;2023-05-07T04:31:34;9.91;;;8.72;;
15502;SDS011;7853;52.186;5.948;2023-05-07T04:32:34;9.78;;;8.69;;
15502;SDS011;7853;52.186;5.948;2023-05-07T04:33:35;9.79;;;8.69;;
15502;SDS011;7853;52.186;5.948;2023-05-07T04:34:35;10.92;;;9.21;;
15502;SDS011;7853;52.186;5.948;2023-05-07T04:35:35;10.31;;;8.81;;
15502;SDS011;7853;52.186;5.948;2023-05-07T04:36:35;10.62;;;8.49;;
15502;SDS011;7853;52.186;5.948;2023-05-07T04:37:34;11.68;;;8.85;;
15502;SDS011;7853;52.186;5.948;2023-05-07T04:38:35;10.74;;;8.68;;
15502;SDS011;7853;52.186;5.948;2023-05-07T04:39:35;9.92;;;8.84;;
15502;SDS011;7853;52.186;5.948;2023-05-07T04:40:35;9.80;;;8.62;;
15502;SDS011;7853;52.186;5.948;2023-05-07T04:41:35;9.89;;;8.65;;
15502;SDS011;7853;52.186;5.948;2023-05-07T04:42:34;9.60;;;8.28;;
15502;SDS011;7853;52.186;5.948;2023-05-07T04:43:35;9.51;;;8.39;;
15502;SDS011;7853;52.186;5.948;2023-05-07T04:44:35;10.35;;;8.69;;
15502;SDS011;7853;52.186;5.948;2023-05-07T04:45:38;10.58;;;9.11;;
15502;SDS011;7853;52.186;5.948;2023-05-07T04:46:34;9.88;;;8.63;;
15502;SDS011;7853;52.186;5.948;2023-05-07T04:47:35;9.94;;;8.61;;
15502;SDS011;7853;52.186;5.948;2023-05-07T04:48:35;10.17;;;8.76;;
15502;SDS011;7853;52.186;5.948;2023-05-07T04:49:34;10.07;;;8.82;;
15502;SDS011;7853;52.186;5.948;2023-05-07T04:50:35;10.65;;;9.07;;
15502;SDS011;7853;52.186;5.948;2023-05-07T04:51:34;9.72;;;8.64;;
15502;SDS011;7853;52.186;5.948;2023-05-07T04:52:35;10.03;;;8.76;;
15502;SDS011;7853;52.186;5.948;2023-05-07T04:53:34;9.89;;;8.73;;
15502;SDS011;7853;52.186;5.948;2023-05-07T04:54:35;10.76;;;8.86;;
15502;SDS011;7853;52.186;5.948;2023-05-07T04:55:34;9.52;;;8.44;;
15502;SDS011;7853;52.186;5.948;2023-05-07T04:56:35;9.48;;;8.51;;
15502;SDS011;7853;52.186;5.948;2023-05-07T04:57:35;9.90;;;8.89;;
15502;SDS011;7853;52.186;5.948;2023-05-07T04:58:35;10.40;;;9.24;;
15502;SDS011;7853;52.186;5.948;2023-05-07T04:59:35;10.20;;;9.08;;
15502;SDS011;7853;52.186;5.948;2023-05-07T05:00:35;10.81;;;9.33;;
15502;SDS011;7853;52.186;5.948;2023-05-07T05:01:35;11.28;;;9.18;;
15502;SDS011;7853;52.186;5.948;2023-05-07T05:02:35;10.59;;;9.17;;
15502;SDS011;7853;52.186;5.948;2023-05-07T05:03:35;9.97;;;8.90;;
15502;SDS011;7853;52.186;5.948;2023-05-07T05:04:34;9.93;;;8.89;;
15502;SDS011;7853;52.186;5.948;2023-05-07T05:05:35;9.99;;;8.76;;
15502;SDS011;7853;52.186;5.948;2023-05-07T05:06:35;10.71;;;9.25;;
15502;SDS011;7853;52.186;5.948;2023-05-07T05:07:34;10.88;;;9.32;;
15502;SDS011;7853;52.186;5.948;2023-05-07T05:08:34;11.56;;;9.41;;
15502;SDS011;7853;52.186;5.948;2023-05-07T05:09:35;10.07;;;9.01;;
15502;SDS011;7853;52.186;5.948;2023-05-07T05:10:35;10.56;;;8.86;;
15502;SDS011;7853;52.186;5.948;2023-05-07T05:11:34;11.44;;;9.18;;
15502;SDS011;7853;52.186;5.948;2023-05-07T05:12:34;10.82;;;9.32;;
15502;SDS011;7853;52.186;5.948;2023-05-07T05:13:35;10.81;;;9.45;;
15502;SDS011;7853;52.186;5.948;2023-05-07T05:14:35;10.25;;;9.12;;
15502;SDS011;7853;52.186;5.948;2023-05-07T05:15:35;11.30;;;9.40;;
15502;SDS011;7853;52.186;5.948;2023-05-07T05:16:34;11.17;;;8.85;;
15502;SDS011;7853;52.186;5.948;2023-05-07T05:17:35;10.28;;;8.88;;
15502;SDS011;7853;52.186;5.948;2023-05-07T05:18:35;10.41;;;9.04;;
15502;SDS011;7853;52.186;5.948;2023-05-07T05:19:34;11.25;;;9.15;;
15502;SDS011;7853;52.186;5.948;2023-05-07T05:20:35;10.39;;;8.64;;
15502;SDS011;7853;52.186;5.948;2023-05-07T05:21:34;10.54;;;9.20;;
15502;SDS011;7853;52.186;5.948;2023-05-07T05:22:35;10.99;;;9.25;;
15502;SDS011;7853;52.186;5.948;2023-05-07T05:23:34;11.99;;;9.61;;
15502;SDS011;7853;52.186;5.948;2023-05-07T05:24:34;10.67;;;9.40;;
15502;SDS011;7853;52.186;5.948;2023-05-07T05:25:35;11.67;;;9.08;;
15502;SDS011;7853;52.186;5.948;2023-05-07T05:26:35;10.52;;;9.25;;
15502;SDS011;7853;52.186;5.948;2023-05-07T05:27:35;10.52;;;9.43;;
15502;SDS011;7853;52.186;5.948;2023-05-07T05:28:34;11.90;;;9.35;;
15502;SDS011;7853;52.186;5.948;2023-05-07T05:29:35;10.93;;;9.62;;
15502;SDS011;7853;52.186;5.948;2023-05-07T05:30:34;10.63;;;9.47;;
15502;SDS011;7853;52.186;5.948;2023-05-07T05:31:34;11.83;;;9.43;;
15502;SDS011;7853;52.186;5.948;2023-05-07T05:32:37;11.33;;;9.35;;
15502;SDS011;7853;52.186;5.948;2023-05-07T05:33:33;11.36;;;9.84;;
15502;SDS011;7853;52.186;5.948;2023-05-07T05:34:34;11.39;;;9.33;;
15502;SDS011;7853;52.186;5.948;2023-05-07T05:35:34;10.11;;;8.92;;
15502;SDS011;7853;52.186;5.948;2023-05-07T05:36:34;10.71;;;9.06;;
15502;SDS011;7853;52.186;5.948;2023-05-07T05:37:34;11.55;;;9.92;;
15502;SDS011;7853;52.186;5.948;2023-05-07T05:38:34;10.73;;;9.01;;
15502;SDS011;7853;52.186;5.948;2023-05-07T05:39:34;11.23;;;8.89;;
15502;SDS011;7853;52.186;5.948;2023-05-07T05:40:34;10.52;;;8.61;;
15502;SDS011;7853;52.186;5.948;2023-05-07T05:41:35;10.44;;;8.67;;
15502;SDS011;7853;52.186;5.948;2023-05-07T05:42:34;11.94;;;9.48;;
15502;SDS011;7853;52.186;5.948;2023-05-07T05:43:35;11.72;;;9.30;;
15502;SDS011;7853;52.186;5.948;2023-05-07T05:44:34;10.63;;;8.67;;
15502;SDS011;7853;52.186;5.948;2023-05-07T05:45:34;12.56;;;9.45;;
15502;SDS011;7853;52.186;5.948;2023-05-07T05:46:35;11.52;;;8.79;;
15502;SDS011;7853;52.186;5.948;2023-05-07T05:47:35;9.66;;;8.13;;
15502;SDS011;7853;52.186;5.948;2023-05-07T05:48:35;10.41;;;8.51;;
15502;SDS011;7853;52.186;5.948;2023-05-07T05:49:35;11.11;;;9.36;;
15502;SDS011;7853;52.186;5.948;2023-05-07T05:50:34;11.37;;;9.13;;
15502;SDS011;7853;52.186;5.948;2023-05-07T05:51:35;10.94;;;9.06;;
15502;SDS011;7853;52.186;5.948;2023-05-07T05:52:35;12.47;;;9.37;;
15502;SDS011;7853;52.186;5.948;2023-05-07T05:53:34;10.93;;;9.47;;
15502;SDS011;7853;52.186;5.948;2023-05-07T05:54:35;10.03;;;8.21;;
15502;SDS011;7853;52.186;5.948;2023-05-07T05:55:35;11.69;;;8.69;;
15502;SDS011;7853;52.186;5.948;2023-05-07T05:56:35;10.65;;;8.79;;
15502;SDS011;7853;52.186;5.948;2023-05-07T05:57:35;13.28;;;9.12;;
15502;SDS011;7853;52.186;5.948;2023-05-07T05:58:35;10.78;;;9.27;;
15502;SDS011;7853;52.186;5.948;2023-05-07T05:59:35;10.39;;;9.06;;
15502;SDS011;7853;52.186;5.948;2023-05-07T06:00:35;11.44;;;9.22;;
15502;SDS011;7853;52.186;5.948;2023-05-07T06:01:35;14.49;;;9.40;;
15502;SDS011;7853;52.186;5.948;2023-05-07T06:02:35;13.80;;;9.34;;
15502;SDS011;7853;52.186;5.948;2023-05-07T06:03:35;12.83;;;8.94;;
15502;SDS011;7853;52.186;5.948;2023-05-07T06:04:34;11.06;;;9.02;;
15502;SDS011;7853;52.186;5.948;2023-05-07T06:05:34;11.20;;;9.12;;
15502;SDS011;7853;52.186;5.948;2023-05-07T06:06:35;11.89;;;8.95;;